Terminal Aerodrome Forecast
Issued by NWS

Home | Current Version | Previous Version | Text Only | Print | Product List | Glossary On
Versions: 1 2 3 4 5 6 7 8 9 10 11 12 13 14 15 16 17 18 19 20 21 22 23 24
000
FTUS43 KDLH 241100
TAFHIB
TAF
KHIB 241129Z 2412/2512 11010KT P6SM -RA OVC006
     FM241500 12010KT 4SM -RA BR OVC007
     FM242200 10007KT 2SM -SNRA BR OVC007
     FM250300 VRB03KT 1 1/2SM -SNDZ BR OVC005=

USA.gov is the U.S. government's official web portal to all federal, state and local government web resources and services.